createdAt,value
2023-05-04T00:03:09.388Z,4.80
2023-05-04T00:08:14.645Z,4.70
2023-05-04T00:13:19.923Z,3.33
2023-05-04T00:18:25.249Z,2.87
2023-05-04T00:23:30.821Z,4.10
2023-05-04T00:28:36.502Z,3.13
2023-05-04T00:33:41.742Z,3.63
2023-05-04T00:38:51.420Z,4.63
2023-05-04T00:43:56.673Z,3.73
2023-05-04T00:49:02.484Z,4.63
2023-05-04T00:54:07.912Z,3.37
2023-05-04T00:59:14.287Z,3.07
2023-05-04T01:04:19.652Z,4.53
2023-05-04T01:09:27.897Z,3.63
2023-05-04T01:14:34.340Z,3.40
2023-05-04T01:19:39.513Z,3.60
2023-05-04T01:24:44.717Z,4.03
2023-05-04T01:29:52.854Z,4.00
2023-05-04T01:34:58.240Z,4.10
2023-05-04T01:40:05.767Z,4.00
2023-05-04T01:45:11.842Z,3.33
2023-05-04T01:50:17.176Z,4.60
2023-05-04T01:55:22.621Z,3.93
2023-05-04T02:00:29.265Z,4.13
2023-05-04T02:05:34.703Z,5.33
2023-05-04T02:10:40.113Z,5.37
2023-05-04T02:15:45.559Z,5.20
2023-05-04T02:20:51.015Z,5.30
2023-05-04T02:25:57.116Z,4.10
2023-05-04T02:31:02.375Z,5.10
2023-05-04T02:36:07.730Z,3.47
2023-05-04T02:41:12.982Z,4.13
2023-05-04T02:46:19.913Z,3.63
2023-05-04T02:51:25.217Z,4.20
2023-05-04T02:56:31.233Z,3.40
2023-05-04T03:01:36.986Z,4.60
2023-05-04T03:06:42.546Z,2.97
2023-05-04T03:11:47.715Z,4.00
2023-05-04T03:16:53.084Z,3.73
2023-05-04T03:21:58.892Z,4.90
2023-05-04T03:27:04.702Z,5.17
2023-05-04T03:32:09.988Z,5.40
2023-05-04T03:37:16.405Z,4.77
2023-05-04T03:42:21.663Z,6.03
2023-05-04T03:47:26.996Z,5.03
2023-05-04T03:52:32.503Z,4.27
2023-05-04T03:57:38.348Z,5.47
2023-05-04T04:02:43.737Z,5.17
2023-05-04T04:07:49.088Z,6.43
2023-05-04T04:12:58.819Z,6.07
2023-05-04T04:18:04.163Z,7.00
2023-05-04T04:23:09.319Z,5.73
2023-05-04T04:28:17.174Z,6.80
2023-05-04T04:33:24.350Z,6.10
2023-05-04T04:38:29.719Z,5.60
2023-05-04T04:43:38.575Z,4.83
2023-05-04T04:48:43.733Z,5.77
2023-05-04T04:54:02.975Z,5.47
2023-05-04T04:59:08.399Z,6.87
2023-05-04T05:04:13.821Z,5.77
2023-05-04T05:09:18.989Z,5.80
2023-05-04T05:14:24.192Z,4.37
2023-05-04T05:19:29.389Z,5.00
2023-05-04T05:24:34.447Z,4.50
2023-05-04T05:29:40.579Z,4.90
2023-05-04T05:34:45.729Z,4.60
2023-05-04T05:39:51.356Z,4.37
2023-05-04T05:44:56.725Z,4.93
2023-05-04T05:50:01.958Z,5.03
2023-05-04T05:55:07.367Z,4.93
2023-05-04T06:00:14.211Z,8.10
2023-05-04T06:05:19.584Z,6.03
2023-05-04T06:10:24.840Z,6.20
2023-05-04T06:15:30.601Z,5.03
2023-05-04T06:20:36.664Z,4.30
2023-05-04T06:25:42.348Z,4.40
2023-05-04T06:30:48.566Z,4.63
2023-05-04T06:35:54.493Z,4.57
2023-05-04T06:40:59.644Z,4.73
2023-05-04T06:46:05.418Z,5.47
2023-05-04T06:51:10.703Z,5.50
2023-05-04T06:56:17.006Z,4.47
2023-05-04T07:01:22.899Z,4.40
2023-05-04T07:06:28.849Z,4.33
2023-05-04T07:11:33.977Z,4.30
2023-05-04T07:16:39.403Z,3.07
2023-05-04T07:21:44.748Z,3.60
2023-05-04T07:26:49.966Z,3.73
2023-05-04T07:31:55.483Z,3.10
2023-05-04T07:37:01.828Z,2.60
2023-05-04T07:42:08.181Z,3.97
2023-05-04T07:47:13.670Z,2.83
2023-05-04T07:52:18.924Z,2.83
2023-05-04T07:57:24.070Z,2.63
2023-05-04T08:02:31.344Z,3.03
2023-05-04T08:07:37.050Z,2.13
2023-05-04T08:12:42.803Z,2.37
2023-05-04T08:17:48.121Z,2.47
2023-05-04T08:22:53.541Z,2.93
2023-05-04T08:27:59.105Z,2.60
2023-05-04T08:33:06.186Z,2.83
2023-05-04T08:38:11.358Z,2.50
2023-05-04T08:43:27.043Z,3.27
2023-05-04T08:48:37.109Z,2.35
2023-05-04T08:53:46.721Z,2.60
2023-05-04T08:58:53.575Z,2.63
2023-05-04T09:04:02.159Z,2.50
2023-05-04T09:09:08.360Z,2.20
2023-05-04T09:14:13.418Z,1.95
2023-05-04T09:19:26.634Z,2.08
2023-05-04T09:24:32.376Z,1.62
2023-05-04T09:29:55.788Z,1.70
2023-05-04T09:35:04.149Z,1.92
2023-05-04T09:40:13.211Z,1.70
2023-05-04T09:45:21.406Z,1.80
2023-05-04T09:50:29.386Z,1.80
2023-05-04T09:55:34.607Z,1.15
2023-05-04T10:00:40.569Z,1.60
2023-05-04T10:05:46.643Z,1.52
2023-05-04T10:10:53.621Z,2.10
2023-05-04T10:16:07.567Z,1.50
2023-05-04T10:21:30.994Z,1.40
2023-05-04T10:26:51.092Z,1.60
2023-05-04T10:31:57.004Z,1.72
2023-05-04T10:37:05.755Z,1.40
2023-05-04T10:42:10.972Z,1.40
2023-05-04T10:47:16.192Z,1.30
2023-05-04T10:52:22.760Z,1.40
2023-05-04T10:57:29.556Z,2.15
2023-05-04T11:02:35.513Z,1.60
2023-05-04T11:07:41.539Z,1.50
2023-05-04T11:12:46.831Z,1.20
2023-05-04T11:17:53.830Z,1.62
2023-05-04T11:23:05.938Z,1.15
2023-05-04T11:28:14.221Z,1.42
2023-05-04T11:33:24.846Z,1.82
2023-05-04T11:38:33.624Z,1.22
2023-05-04T11:43:40.520Z,1.80
2023-05-04T11:48:49.740Z,1.55
2023-05-04T11:53:57.162Z,2.20
2023-05-04T11:59:12.684Z,1.50
2023-05-04T12:04:18.032Z,1.10
2023-05-04T12:09:27.890Z,1.85
2023-05-04T12:14:34.448Z,1.45
2023-05-04T12:19:57.611Z,1.00
2023-05-04T12:25:02.765Z,1.20
2023-05-04T12:30:11.664Z,1.55
2023-05-04T12:35:17.361Z,1.20
2023-05-04T12:40:28.817Z,1.30
2023-05-04T12:45:30.869Z,1.02
2023-05-04T12:50:36.098Z,1.22
2023-05-04T12:55:41.529Z,1.00
2023-05-04T13:00:46.731Z,0.85
2023-05-04T13:05:52.530Z,1.10
2023-05-04T13:10:58.072Z,1.30
2023-05-04T13:16:03.390Z,1.07
2023-05-04T13:21:08.828Z,1.15
2023-05-04T13:26:14.072Z,1.22
2023-05-04T13:31:19.344Z,1.22
2023-05-04T13:36:24.544Z,2.20
2023-05-04T13:41:29.615Z,0.98
2023-05-04T13:46:37.417Z,1.07
2023-05-04T13:51:43.388Z,1.00
2023-05-04T13:56:48.895Z,1.12
2023-05-04T14:01:54.149Z,1.17
2023-05-04T14:06:59.416Z,1.15
2023-05-04T14:12:05.913Z,1.13
2023-05-04T14:17:13.850Z,1.37
2023-05-04T14:22:19.100Z,1.00
2023-05-04T14:27:24.379Z,0.90
2023-05-04T14:32:29.569Z,1.43
2023-05-04T14:37:39.516Z,1.27
2023-05-04T14:42:45.112Z,3.03
2023-05-04T14:47:50.361Z,1.25
2023-05-04T14:52:55.649Z,2.83
2023-05-04T14:58:00.960Z,1.35
2023-05-04T15:03:10.009Z,1.45
2023-05-04T15:08:15.485Z,1.83
2023-05-04T15:13:20.654Z,1.53
2023-05-04T15:18:26.600Z,1.50
2023-05-04T15:23:34.022Z,1.10
2023-05-04T15:28:42.395Z,1.22
2023-05-04T15:33:53.449Z,1.33
2023-05-04T15:39:01.304Z,1.30
2023-05-04T15:44:09.802Z,2.00
2023-05-04T15:49:15.141Z,1.20
2023-05-04T15:54:20.394Z,0.80
2023-05-04T15:59:28.570Z,1.13
2023-05-04T16:04:33.818Z,1.57
2023-05-04T16:09:39.074Z,5.63
2023-05-04T16:14:44.591Z,1.50
2023-05-04T16:19:49.740Z,1.63
2023-05-04T16:24:55.251Z,2.57
2023-05-04T16:30:07.179Z,2.00
2023-05-04T16:35:14.453Z,1.23
2023-05-04T16:40:23.738Z,1.70
2023-05-04T16:45:52.283Z,2.03
2023-05-04T16:50:43.802Z,17.17
2023-05-04T16:55:50.978Z,6.43
2023-05-04T17:00:58.367Z,6.63
2023-05-04T17:06:07.045Z,11.63
2023-05-04T17:11:14.286Z,4.23
2023-05-04T17:16:21.854Z,5.83
2023-05-04T17:21:37.821Z,3.40
2023-05-04T17:26:45.826Z,2.80
2023-05-04T17:31:55.814Z,1.77
2023-05-04T17:37:01.431Z,1.50
2023-05-04T17:42:09.234Z,1.47
2023-05-04T17:47:14.919Z,1.77
2023-05-04T17:52:21.714Z,3.30
2023-05-04T17:57:28.189Z,2.80
2023-05-04T18:02:34.835Z,3.53
2023-05-04T18:07:46.429Z,2.80
2023-05-04T18:13:00.540Z,3.30
2023-05-04T18:18:07.295Z,2.90
2023-05-04T18:29:27.126Z,2.63
2023-05-04T18:34:32.810Z,3.63
2023-05-04T18:39:51.284Z,5.50
2023-05-04T18:45:20.085Z,6.77
2023-05-04T18:50:32.191Z,6.67
2023-05-04T18:55:38.635Z,6.10
2023-05-04T19:00:45.383Z,6.20
2023-05-04T19:05:50.738Z,7.57
2023-05-04T19:11:08.108Z,6.40
2023-05-04T19:16:14.473Z,3.60
2023-05-04T19:21:19.997Z,2.90
2023-05-04T19:26:27.871Z,2.70
2023-05-04T19:31:33.429Z,2.67
2023-05-04T19:36:38.695Z,2.70
2023-05-04T19:41:43.962Z,2.37
2023-05-04T19:46:50.992Z,2.27
2023-05-04T19:52:03.858Z,3.10
2023-05-04T19:57:21.807Z,2.23
2023-05-04T20:08:34.217Z,1.87
2023-05-04T20:13:39.407Z,1.80
2023-05-04T20:19:10.443Z,2.27
2023-05-04T20:24:38.728Z,2.00
2023-05-04T20:29:49.633Z,2.13
2023-05-04T20:34:54.787Z,1.93
2023-05-04T20:40:00.040Z,2.57
2023-05-04T20:45:15.251Z,2.30
2023-05-04T20:50:51.555Z,2.40
2023-05-04T20:56:00.981Z,2.50
2023-05-04T21:01:30.802Z,2.30
2023-05-04T21:12:41.073Z,2.33
2023-05-04T21:17:55.283Z,1.90
2023-05-04T21:23:01.238Z,3.10
2023-05-04T21:28:09.996Z,1.53
2023-05-04T21:33:15.404Z,5.40
2023-05-04T21:38:23.423Z,3.10
2023-05-04T21:43:34.248Z,4.33
2023-05-04T21:48:47.926Z,2.70
2023-05-04T21:53:53.724Z,2.40
2023-05-04T21:59:01.949Z,2.00
2023-05-04T22:04:08.664Z,2.53
2023-05-04T22:09:25.670Z,2.27
2023-05-04T22:14:38.608Z,2.20
2023-05-04T22:19:43.259Z,2.10
2023-05-04T22:24:53.148Z,1.80
2023-05-04T22:30:01.772Z,2.20
2023-05-04T22:35:07.379Z,1.50
2023-05-04T22:40:12.667Z,1.67
2023-05-04T22:45:20.631Z,2.10
2023-05-04T22:50:25.969Z,1.40
2023-05-04T22:55:31.237Z,1.90
2023-05-04T23:00:37.136Z,1.67
2023-05-04T23:05:42.501Z,1.70
2023-05-04T23:10:48.869Z,2.23
2023-05-04T23:15:54.671Z,2.30
2023-05-04T23:21:00.222Z,1.73
2023-05-04T23:26:05.581Z,2.00
2023-05-04T23:31:11.546Z,2.20
2023-05-04T23:36:17.028Z,1.97
2023-05-04T23:41:22.224Z,1.90
2023-05-04T23:46:27.577Z,2.40
2023-05-04T23:51:32.926Z,2.07
2023-05-04T23:56:38.114Z,2.10
